createdAt,value
2022-08-10T00:01:19.555Z,64.01
2022-08-10T00:04:04.324Z,63.56
2022-08-10T00:06:48.350Z,63.29
2022-08-10T00:09:32.346Z,63.36
2022-08-10T00:12:54.761Z,63.68
2022-08-10T00:15:53.050Z,62.50
2022-08-10T00:18:40.394Z,62.81
2022-08-10T00:21:24.497Z,63.50
2022-08-10T00:24:11.418Z,62.54
2022-08-10T00:28:01.010Z,63.26
2022-08-10T00:29:59.722Z,63.31
2022-08-10T00:32:43.908Z,63.81
2022-08-10T00:35:29.662Z,63.75
2022-08-10T00:38:13.620Z,63.53
2022-08-10T00:40:57.720Z,63.14
2022-08-10T00:43:41.603Z,63.33
2022-08-10T00:46:25.525Z,63.23
2022-08-10T00:49:09.640Z,63.21
2022-08-10T00:51:55.303Z,62.78
2022-08-10T00:54:39.473Z,62.71
2022-08-10T00:57:23.546Z,62.61
2022-08-10T01:00:10.148Z,62.93
2022-08-10T01:02:54.180Z,62.16
2022-08-10T01:05:51.349Z,62.02
2022-08-10T01:08:47.626Z,62.74
2022-08-10T01:12:39.042Z,62.31
2022-08-10T01:14:54.295Z,61.43
2022-08-10T01:17:49.888Z,61.85
2022-08-10T01:20:40.063Z,62.02
2022-08-10T01:24:08.404Z,61.44
2022-08-10T01:27:08.404Z,61.41
2022-08-10T01:30:00.903Z,61.26
2022-08-10T01:32:51.368Z,60.98
2022-08-10T01:35:41.258Z,61.03
2022-08-10T01:38:29.577Z,60.61
2022-08-10T01:41:20.571Z,60.02
2022-08-10T01:44:11.097Z,59.58
2022-08-10T01:47:22.646Z,59.52
2022-08-10T01:50:13.879Z,59.05
2022-08-10T01:53:03.806Z,58.54
2022-08-10T01:55:50.051Z,58.76
2022-08-10T01:58:36.734Z,58.74
2022-08-10T02:01:29.852Z,58.35
2022-08-10T02:04:18.511Z,58.50
2022-08-10T02:07:03.797Z,58.09
2022-08-10T02:09:53.700Z,57.63
2022-08-10T02:12:39.172Z,57.48
2022-08-10T02:15:24.974Z,57.42
2022-08-10T02:18:11.382Z,56.95
2022-08-10T02:20:58.737Z,56.69
2022-08-10T02:23:44.528Z,56.33
2022-08-10T02:26:42.493Z,56.55
2022-08-10T02:29:27.316Z,56.42
2022-08-10T02:32:13.604Z,56.07
2022-08-10T02:35:20.890Z,56.10
2022-08-10T02:38:09.656Z,56.25
2022-08-10T02:45:14.711Z,55.87
2022-08-10T02:45:19.858Z,56.15
2022-08-10T02:47:19.293Z,56.47
2022-08-10T02:50:09.173Z,55.98
2022-08-10T02:53:04.339Z,56.88
2022-08-10T02:55:57.820Z,56.64
2022-08-10T02:58:45.021Z,57.19
2022-08-10T03:01:33.391Z,57.74
2022-08-10T03:04:56.175Z,57.44
2022-08-10T03:07:43.766Z,57.86
2022-08-10T03:10:32.130Z,57.82
2022-08-10T03:13:20.041Z,58.56
2022-08-10T03:16:06.471Z,58.27
2022-08-10T03:18:52.044Z,58.15
2022-08-10T03:21:38.269Z,57.79
2022-08-10T03:24:30.178Z,57.31
2022-08-10T03:27:18.789Z,57.04
2022-08-10T03:30:29.828Z,56.87
2022-08-10T03:33:09.869Z,56.87
2022-08-10T03:36:39.982Z,56.62
2022-08-10T03:38:57.965Z,57.05
2022-08-10T03:41:54.247Z,56.76
2022-08-10T03:44:43.056Z,56.74
2022-08-10T03:47:31.472Z,56.75
2022-08-10T03:50:45.142Z,56.73
2022-08-10T03:53:24.968Z,56.65
2022-08-10T03:56:28.272Z,56.76
2022-08-10T03:59:16.780Z,56.92
2022-08-10T04:02:45.386Z,56.29
2022-08-10T04:05:07.952Z,56.88
2022-08-10T04:07:51.904Z,57.06
2022-08-10T04:10:36.084Z,56.31
2022-08-10T04:13:19.884Z,56.46
2022-08-10T04:16:07.571Z,55.88
2022-08-10T04:18:51.613Z,55.79
2022-08-10T04:21:40.444Z,55.97
2022-08-10T04:24:33.069Z,55.95
2022-08-10T04:27:17.863Z,55.87
2022-08-10T04:30:01.896Z,55.21
2022-08-10T04:32:49.968Z,55.17
2022-08-10T04:35:34.833Z,54.80
2022-08-10T04:38:20.727Z,54.68
2022-08-10T04:41:05.301Z,55.15
2022-08-10T04:43:49.508Z,55.33
2022-08-10T04:46:55.548Z,54.55
2022-08-10T04:49:56.414Z,53.90
2022-08-10T04:52:40.747Z,54.43
2022-08-10T04:55:26.090Z,53.65
2022-08-10T04:58:10.207Z,53.44
2022-08-10T05:00:54.212Z,53.39
2022-08-10T05:04:33.957Z,53.36
2022-08-10T05:06:41.986Z,53.52
2022-08-10T05:09:25.886Z,53.59
2022-08-10T05:12:11.834Z,53.12
2022-08-10T05:14:55.729Z,53.78
2022-08-10T05:17:40.996Z,53.81
2022-08-10T05:20:49.636Z,53.42
2022-08-10T05:23:34.104Z,52.65
2022-08-10T05:26:17.935Z,52.31
2022-08-10T05:29:03.120Z,52.11
2022-08-10T05:31:47.029Z,52.14
2022-08-10T05:34:30.944Z,51.90
2022-08-10T05:38:10.820Z,52.03
2022-08-10T05:40:22.081Z,51.50
2022-08-10T05:43:06.965Z,51.71
2022-08-10T05:46:17.287Z,51.53
2022-08-10T05:49:01.244Z,50.91
2022-08-10T05:51:46.055Z,50.17
2022-08-10T05:54:30.040Z,49.80
2022-08-10T05:57:16.200Z,50.19
2022-08-10T06:00:33.271Z,50.09
2022-08-10T06:03:10.031Z,49.79
2022-08-10T06:05:55.808Z,49.37
2022-08-10T06:08:42.510Z,49.35
2022-08-10T06:12:27.351Z,48.69
2022-08-10T06:14:53.089Z,48.83
2022-08-10T06:17:43.966Z,48.21
2022-08-10T06:20:32.733Z,48.51
2022-08-10T06:23:20.315Z,48.82
2022-08-10T06:26:10.957Z,47.68
2022-08-10T06:29:02.885Z,47.45
2022-08-10T06:31:51.201Z,47.93
2022-08-10T06:34:39.743Z,48.17
2022-08-10T06:37:29.206Z,48.28
2022-08-10T06:40:14.317Z,47.52
2022-08-10T06:43:01.009Z,46.92
2022-08-10T06:45:47.447Z,47.84
2022-08-10T06:48:52.853Z,47.83
2022-08-10T06:51:39.115Z,47.40
2022-08-10T06:54:27.456Z,48.19
2022-08-10T06:57:20.354Z,48.21
2022-08-10T07:00:06.785Z,49.26
2022-08-10T07:02:56.105Z,49.78
2022-08-10T07:05:46.882Z,49.49
2022-08-10T07:08:36.783Z,48.63
2022-08-10T07:11:23.250Z,48.65
2022-08-10T07:14:13.980Z,49.75
2022-08-10T07:17:00.759Z,49.42
2022-08-10T07:19:49.647Z,49.43
2022-08-10T07:23:04.840Z,49.61
2022-08-10T07:25:43.444Z,49.59
2022-08-10T07:28:30.704Z,50.13
2022-08-10T07:31:54.826Z,49.72
2022-08-10T07:34:29.263Z,49.36
2022-08-10T07:37:15.728Z,49.53
2022-08-10T07:40:04.953Z,49.54
2022-08-10T07:42:50.426Z,49.36
2022-08-10T07:45:37.098Z,48.55
2022-08-10T07:48:26.680Z,48.16
2022-08-10T07:51:11.828Z,48.79
2022-08-10T07:53:57.963Z,48.09
2022-08-10T07:56:48.823Z,48.74
2022-08-10T07:59:38.856Z,47.56
2022-08-10T08:02:28.744Z,47.84
2022-08-10T08:05:54.855Z,47.64
2022-08-10T08:08:21.626Z,47.54
2022-08-10T08:11:06.930Z,47.29
2022-08-10T08:13:52.086Z,47.01
2022-08-10T08:16:37.731Z,46.55
2022-08-10T08:19:27.725Z,46.26
2022-08-10T08:24:05.991Z,46.85
2022-08-10T08:25:18.873Z,46.46
2022-08-10T08:28:05.869Z,47.21
2022-08-10T08:30:50.981Z,46.65
2022-08-10T08:33:41.526Z,47.74
2022-08-10T08:36:29.151Z,46.76
2022-08-10T08:39:13.582Z,47.26
2022-08-10T08:42:24.572Z,46.69
2022-08-10T08:45:21.044Z,46.75
2022-08-10T08:48:31.208Z,45.71
2022-08-10T08:52:12.388Z,47.65
2022-08-10T08:54:54.367Z,47.57
2022-08-10T08:57:50.464Z,48.22
2022-08-10T09:00:41.289Z,48.46
2022-08-10T09:03:51.541Z,47.98
2022-08-10T09:07:39.278Z,47.72
2022-08-10T09:10:27.385Z,47.29
2022-08-10T09:13:26.742Z,46.05
2022-08-10T09:16:25.709Z,45.91
2022-08-10T09:19:19.481Z,45.86
2022-08-10T09:22:26.148Z,47.60
2022-08-10T09:25:16.265Z,46.50
2022-08-10T09:28:06.706Z,45.89
2022-08-10T09:31:20.899Z,45.68
2022-08-10T09:36:23.864Z,46.98
2022-08-10T09:37:21.843Z,45.19
2022-08-10T09:41:00.416Z,45.38
2022-08-10T09:43:31.011Z,45.44
2022-08-10T09:46:27.428Z,45.76
2022-08-10T09:49:22.433Z,44.33
2022-08-10T09:52:23.059Z,44.11
2022-08-10T09:55:14.864Z,44.40
2022-08-10T09:58:08.744Z,43.49
2022-08-10T10:01:00.121Z,43.80
2022-08-10T10:03:55.295Z,42.64
2022-08-10T10:06:44.979Z,42.79
2022-08-10T10:09:35.376Z,43.03
2022-08-10T10:12:28.254Z,43.84
2022-08-10T10:15:27.774Z,44.02
2022-08-10T10:18:34.582Z,43.48
2022-08-10T10:21:54.658Z,43.35
2022-08-10T10:24:42.614Z,42.34
2022-08-10T10:27:38.333Z,41.93
2022-08-10T10:30:26.459Z,42.22
2022-08-10T10:33:15.526Z,41.40
2022-08-10T10:36:02.192Z,42.18
2022-08-10T10:38:48.571Z,42.46
2022-08-10T10:41:55.912Z,42.04
2022-08-10T10:44:53.961Z,42.29
2022-08-10T10:48:00.860Z,42.11
2022-08-10T10:51:00.111Z,41.95
2022-08-10T10:53:50.994Z,41.63
2022-08-10T10:56:43.774Z,41.34
2022-08-10T10:59:56.179Z,41.23
2022-08-10T11:02:55.183Z,41.70
2022-08-10T11:05:49.199Z,40.96
2022-08-10T11:08:41.072Z,41.15
2022-08-10T11:12:00.241Z,42.04
2022-08-10T11:14:42.764Z,42.06
2022-08-10T11:17:34.977Z,41.09
2022-08-10T11:20:25.512Z,41.46
2022-08-10T11:23:21.482Z,41.11
2022-08-10T11:26:11.881Z,41.56
2022-08-10T11:29:07.496Z,41.04
2022-08-10T11:31:58.974Z,42.68
2022-08-10T11:35:12.011Z,41.84
2022-08-10T11:38:32.337Z,41.82
2022-08-10T11:42:07.948Z,40.37
2022-08-10T11:44:29.722Z,40.75
2022-08-10T11:47:20.335Z,40.73
2022-08-10T11:50:12.667Z,40.12
2022-08-10T11:53:05.831Z,40.62
2022-08-10T11:55:55.763Z,39.55
2022-08-10T11:59:16.739Z,40.60
2022-08-10T12:02:04.130Z,40.72
2022-08-10T12:04:52.989Z,40.54
2022-08-10T12:10:06.239Z,39.34
2022-08-10T12:10:47.786Z,39.66
2022-08-10T12:13:49.787Z,40.17
2022-08-10T12:16:46.510Z,39.62
2022-08-10T12:19:59.255Z,40.10
2022-08-10T12:22:50.085Z,41.22
2022-08-10T12:25:55.666Z,40.51
2022-08-10T12:28:51.881Z,40.52
2022-08-10T12:31:42.137Z,39.41
2022-08-10T12:34:35.750Z,39.28
2022-08-10T12:37:24.201Z,40.56
2022-08-10T12:40:34.602Z,40.60
2022-08-10T12:44:07.032Z,41.11
2022-08-10T12:46:37.553Z,40.08
2022-08-10T12:49:27.444Z,41.68
2022-08-10T12:52:20.635Z,41.59
2022-08-10T12:55:06.987Z,41.38
2022-08-10T12:57:53.557Z,41.02
2022-08-10T13:00:53.901Z,40.94
2022-08-10T13:04:20.562Z,40.08
2022-08-10T13:06:50.445Z,41.10
2022-08-10T13:09:54.774Z,40.42
2022-08-10T13:12:42.447Z,40.59
2022-08-10T13:15:49.491Z,42.02
2022-08-10T13:18:36.209Z,42.04
2022-08-10T13:21:21.507Z,41.80
2022-08-10T13:24:12.042Z,41.37
2022-08-10T13:27:25.320Z,41.64
2022-08-10T13:30:07.054Z,41.39
2022-08-10T13:32:55.776Z,40.96
2022-08-10T13:35:40.471Z,39.95
2022-08-10T13:38:25.512Z,40.83
2022-08-10T13:41:10.386Z,40.56
2022-08-10T13:43:59.438Z,40.21
2022-08-10T13:46:51.315Z,39.92
2022-08-10T13:49:46.571Z,38.48
2022-08-10T13:52:30.838Z,38.50
2022-08-10T13:55:17.437Z,38.79
2022-08-10T13:58:03.955Z,38.54
2022-08-10T14:00:49.936Z,39.36
2022-08-10T14:03:37.686Z,40.07
2022-08-10T14:06:29.650Z,39.22
2022-08-10T14:09:15.941Z,39.67
2022-08-10T14:12:01.126Z,40.48
2022-08-10T14:14:53.005Z,40.52
2022-08-10T14:17:44.568Z,40.50
2022-08-10T14:20:30.089Z,40.71
2022-08-10T14:23:15.353Z,40.36
2022-08-10T14:26:08.023Z,40.37
2022-08-10T14:28:56.369Z,40.87
2022-08-10T14:32:00.841Z,40.62
2022-08-10T14:36:16.707Z,40.18
2022-08-10T14:37:58.605Z,41.99
2022-08-10T14:40:44.887Z,41.41
2022-08-10T14:43:32.378Z,40.55
2022-08-10T14:46:20.963Z,41.32
2022-08-10T14:49:25.516Z,40.87
2022-08-10T14:52:12.944Z,39.98
2022-08-10T14:54:58.772Z,41.11
2022-08-10T14:58:19.292Z,40.24
2022-08-10T15:00:52.710Z,40.67
2022-08-10T15:04:01.768Z,40.42
2022-08-10T15:06:54.108Z,40.77
2022-08-10T15:10:00.944Z,39.98
2022-08-10T15:12:48.924Z,39.99
2022-08-10T15:15:49.980Z,40.46
2022-08-10T15:18:43.145Z,40.78
2022-08-10T15:21:43.886Z,40.18
2022-08-10T15:24:48.379Z,40.61
2022-08-10T15:27:53.728Z,40.86
2022-08-10T15:30:42.903Z,40.54
2022-08-10T15:33:59.515Z,40.71
2022-08-10T15:37:36.429Z,41.06
2022-08-10T15:40:24.475Z,40.50
2022-08-10T15:43:25.676Z,40.89
2022-08-10T15:46:16.331Z,39.86
2022-08-10T15:49:03.097Z,40.47
2022-08-10T15:51:57.230Z,39.75
2022-08-10T15:54:58.008Z,40.69
2022-08-10T15:57:45.322Z,41.69
2022-08-10T16:00:32.411Z,42.52
2022-08-10T16:03:23.426Z,42.43
2022-08-10T16:06:08.395Z,42.58
2022-08-10T16:10:10.760Z,42.53
2022-08-10T16:12:16.163Z,41.98
2022-08-10T16:15:04.532Z,42.54
2022-08-10T16:17:56.164Z,42.03
2022-08-10T16:20:51.439Z,41.84
2022-08-10T16:23:43.035Z,42.69
2022-08-10T16:26:29.208Z,42.97
2022-08-10T16:29:18.824Z,42.52
2022-08-10T16:32:04.951Z,43.25
2022-08-10T16:34:52.138Z,43.29
2022-08-10T16:37:56.461Z,43.73
2022-08-10T16:40:44.553Z,43.23
2022-08-10T16:43:29.704Z,44.24
2022-08-10T16:46:19.410Z,44.02
2022-08-10T16:49:04.128Z,43.17
2022-08-10T16:51:51.995Z,43.12
2022-08-10T16:54:37.072Z,44.17
2022-08-10T16:57:27.588Z,43.74
2022-08-10T17:00:12.567Z,43.39
2022-08-10T17:03:02.943Z,43.90
2022-08-10T17:06:13.651Z,44.46
2022-08-10T17:09:03.410Z,44.15
2022-08-10T17:11:50.572Z,43.83
2022-08-10T17:14:34.587Z,43.60
2022-08-10T17:17:22.896Z,43.76
2022-08-10T17:20:30.979Z,43.95
2022-08-10T17:23:15.277Z,43.79
2022-08-10T17:26:04.404Z,44.53
2022-08-10T17:28:51.646Z,44.22
2022-08-10T17:31:54.856Z,44.01
2022-08-10T17:34:45.620Z,45.95
2022-08-10T17:37:35.075Z,44.95
2022-08-10T17:40:25.545Z,45.58
2022-08-10T17:43:12.294Z,46.00
2022-08-10T17:46:17.778Z,45.48
2022-08-10T17:49:06.240Z,46.38
2022-08-10T17:51:54.664Z,46.15
2022-08-10T17:54:41.856Z,46.32
2022-08-10T17:57:26.833Z,45.88
2022-08-10T18:00:15.350Z,45.89
2022-08-10T18:03:00.185Z,44.76
2022-08-10T18:05:52.366Z,45.67
2022-08-10T18:08:42.974Z,45.87
2022-08-10T18:11:29.592Z,46.29
2022-08-10T18:14:15.124Z,46.18
2022-08-10T18:17:08.229Z,46.46
2022-08-10T18:19:54.924Z,46.71
2022-08-10T18:22:45.688Z,47.10
2022-08-10T18:25:33.855Z,46.58
2022-08-10T18:28:20.498Z,45.72
2022-08-10T18:31:05.613Z,46.17
2022-08-10T18:33:55.576Z,46.68
2022-08-10T18:36:42.308Z,47.32
2022-08-10T18:39:29.585Z,48.22
2022-08-10T18:42:18.326Z,47.35
2022-08-10T18:45:08.554Z,48.85
2022-08-10T18:48:00.091Z,49.60
2022-08-10T18:50:49.550Z,49.70
2022-08-10T18:53:38.477Z,49.70
2022-08-10T18:56:39.509Z,50.70
2022-08-10T19:00:08.669Z,51.26
2022-08-10T19:03:22.770Z,50.64
2022-08-10T19:06:27.235Z,51.77
2022-08-10T19:09:47.438Z,52.62
2022-08-10T19:12:45.802Z,52.20
2022-08-10T19:15:34.264Z,51.43
2022-08-10T19:18:31.494Z,52.02
2022-08-10T19:21:22.588Z,52.86
2022-08-10T19:24:16.109Z,53.43
2022-08-10T19:27:11.118Z,53.81
2022-08-10T19:30:11.189Z,54.65
2022-08-10T19:33:06.806Z,55.31
2022-08-10T19:36:05.401Z,55.20
2022-08-10T19:39:07.349Z,55.38
2022-08-10T19:41:57.026Z,56.08
2022-08-10T19:45:02.284Z,55.38
2022-08-10T19:47:55.202Z,55.04
2022-08-10T19:50:43.012Z,55.99
2022-08-10T19:53:40.837Z,56.69
2022-08-10T19:56:37.112Z,56.84
2022-08-10T20:00:14.952Z,56.76
2022-08-10T20:02:43.459Z,57.18
2022-08-10T20:05:33.965Z,57.03
2022-08-10T20:08:23.018Z,56.72
2022-08-10T20:11:44.991Z,57.66
2022-08-10T20:14:23.988Z,57.74
2022-08-10T20:17:12.142Z,57.59
2022-08-10T20:20:03.683Z,58.52
2022-08-10T20:22:51.531Z,58.30
2022-08-10T20:25:35.683Z,58.56
2022-08-10T20:28:22.268Z,59.44
2022-08-10T20:31:17.243Z,59.33
2022-08-10T20:34:06.684Z,59.11
2022-08-10T20:37:03.772Z,58.14
2022-08-10T20:39:57.259Z,59.30
2022-08-10T20:42:51.467Z,59.74
2022-08-10T20:46:06.921Z,60.08
2022-08-10T20:48:57.862Z,60.25
2022-08-10T20:51:58.016Z,60.65
2022-08-10T20:54:48.725Z,59.90
2022-08-10T20:57:56.492Z,60.63
2022-08-10T21:00:52.614Z,59.55
2022-08-10T21:03:45.992Z,60.72
2022-08-10T21:06:46.989Z,60.01
2022-08-10T21:09:48.695Z,60.02
2022-08-10T21:12:59.267Z,60.66
2022-08-10T21:16:02.681Z,60.32
2022-08-10T21:18:55.693Z,59.98
2022-08-10T21:21:59.567Z,59.66
2022-08-10T21:24:52.225Z,59.61
2022-08-10T21:27:49.454Z,59.91
2022-08-10T21:30:55.326Z,58.78
2022-08-10T21:33:44.987Z,59.25
2022-08-10T21:36:37.345Z,59.75
2022-08-10T21:39:43.538Z,59.49
2022-08-10T21:43:02.195Z,59.73
2022-08-10T21:46:13.421Z,59.59
2022-08-10T21:49:23.001Z,60.10
2022-08-10T21:52:30.932Z,60.20
2022-08-10T21:55:58.411Z,60.93
2022-08-10T21:59:05.128Z,60.41
2022-08-10T22:02:12.640Z,60.59
2022-08-10T22:05:18.817Z,60.95
2022-08-10T22:08:23.475Z,61.27
2022-08-10T22:11:30.234Z,61.97
2022-08-10T22:14:44.432Z,62.35
2022-08-10T22:18:00.742Z,63.16
2022-08-10T22:21:14.798Z,62.82
2022-08-10T22:24:27.988Z,62.95
2022-08-10T22:27:56.694Z,63.51
2022-08-10T22:31:30.041Z,63.79
2022-08-10T22:34:45.693Z,63.19
2022-08-10T22:37:59.096Z,63.22
2022-08-10T22:41:11.378Z,63.37
2022-08-10T22:44:19.663Z,63.62
2022-08-10T22:47:23.543Z,63.96
2022-08-10T22:50:10.362Z,63.89
2022-08-10T22:53:03.763Z,64.07
2022-08-10T22:56:12.897Z,63.81
2022-08-10T22:58:56.886Z,63.53
2022-08-10T23:02:07.972Z,64.19
2022-08-10T23:04:53.642Z,64.80
2022-08-10T23:07:46.890Z,64.40
2022-08-10T23:10:38.063Z,65.22
2022-08-10T23:13:36.499Z,64.45
2022-08-10T23:16:43.017Z,65.21
2022-08-10T23:19:30.721Z,65.13
2022-08-10T23:22:17.462Z,65.73
2022-08-10T23:25:08.258Z,65.11
2022-08-10T23:27:59.499Z,65.31
2022-08-10T23:30:49.257Z,65.71
2022-08-10T23:33:38.157Z,65.42
2022-08-10T23:36:35.086Z,65.58
2022-08-10T23:39:25.984Z,65.82
2022-08-10T23:42:14.388Z,65.96
2022-08-10T23:45:02.643Z,66.41
2022-08-10T23:47:52.534Z,65.41
2022-08-10T23:50:37.812Z,65.92
2022-08-10T23:53:30.124Z,65.31
2022-08-10T23:56:18.418Z,66.11
2022-08-10T23:59:03.186Z,65.07
